Plzen Line, Czech Republic

6:13 PM CET on March 05, 2015 (GMT +0100)
Cihan | Change Station
CLOSE
Current Station
Personal Weather Station
Location: Cihan, Plzensky Kraj
Elevation: 1975 ft
Nearby Weather Stations

Elev 1975 ft 49.34 °N, 13.42 °E | Updated 30 seconds ago

Clear
Clear
34.2 °F
Feels Like 34 °F
N
0.0
Wind Variable Wind from West
Gusts 2.0 mph

Today
High -- | Low -- °F
--% Chance of Precip.
Yesterday
High -- | Low -- °F
Precip. -- in
6:42 AM 5:55 PM
Full, 100% visible
Pressure 30.51 in
Visibility -9999.0 miles
Clouds
Windchill 34 °F
Dew Point 26 °F
Humidity 71%
Rainfall in
Snow Depth Not available.
UV Not available.
Pollen Not available.
Air Quality Not available.
Flu Activity Not available.
METAR LKLN 051700Z AUTO VRB03KT CAVOK 04/M04 Q1033

More Conditions Fewer Conditions

Pressure 30.51 in
Visibility -9999.0 miles
Clouds
Windchill 34 °F
Dew Point 26 °F
Humidity 71%
Rainfall in
Snow Depth Not available.
UV Not available.
Pollen Not available.
Air Quality Not available.
Flu Activity Not available.
METAR LKLN 051700Z AUTO VRB03KT CAVOK 04/M04 Q1033

More Conditions Fewer Conditions

10-Day Weather Forecast

Almanac

Astronomy

Mar. 05, 2015 Rise Set
Actual Time
Civil Twilight
Nautical Twilight
Astronomical Twilight
Moon
Length of Visible Light
Length of Day
Tomorrow will be .
, % of the Moon is Illuminated

Today's Extremes

Country Highs Country Lows

Community

WunderPhotos

Upload Photos

1,802,866 photos uploaded!

WunderBlogs® & News

Nearby

Air Quality

  Air Quality AQ Index Pollutant
Not available.

Snow Depth

Station Depth Elevation

Earthquake Activity

City Distance Mag. Time & Date
Minimum magnitude displayed is 2.5.

Coastal Water Temperatures

Place Temperature

Nearby Weather Stations